createdAt,value
2022-08-03T00:01:19.759Z,17.80
2022-08-03T00:04:02.807Z,15.30
2022-08-03T00:06:45.614Z,15.80
2022-08-03T00:09:28.340Z,16.40
2022-08-03T00:15:01.237Z,16.90
2022-08-03T00:17:53.121Z,14.70
2022-08-03T00:20:36.905Z,18.80
2022-08-03T00:23:19.525Z,16.50
2022-08-03T00:26:02.956Z,15.70
2022-08-03T00:28:45.665Z,16.20
2022-08-03T00:31:51.407Z,16.30
2022-08-03T00:34:35.240Z,16.40
2022-08-03T00:37:40.851Z,16.20
2022-08-03T00:40:25.265Z,15.50
2022-08-03T00:43:09.206Z,17.50
2022-08-03T00:45:51.632Z,16.60
2022-08-03T00:48:35.686Z,15.60
2022-08-03T00:51:20.541Z,18.60
2022-08-03T00:54:03.467Z,15.90
2022-08-03T00:56:59.787Z,17.60
2022-08-03T00:59:43.208Z,18.40
2022-08-03T01:02:26.342Z,16.40
2022-08-03T01:05:11.282Z,20.00
2022-08-03T01:08:04.980Z,18.80
2022-08-03T01:11:17.182Z,15.70
2022-08-03T01:14:29.092Z,17.50
2022-08-03T01:17:29.821Z,16.10
2022-08-03T01:20:14.908Z,15.20
2022-08-03T01:23:06.412Z,16.40
2022-08-03T01:26:15.295Z,16.70
2022-08-03T01:29:08.513Z,19.00
2022-08-03T01:32:53.615Z,17.00
2022-08-03T01:35:12.168Z,16.40
2022-08-03T01:38:03.125Z,16.40
2022-08-03T01:40:48.240Z,14.90
2022-08-03T01:44:28.358Z,14.90
2022-08-03T01:46:35.304Z,18.70
2022-08-03T01:49:18.760Z,15.90
2022-08-03T01:52:05.480Z,16.50
2022-08-03T01:54:52.050Z,16.10
2022-08-03T01:58:05.163Z,16.50
2022-08-03T02:00:42.341Z,17.90
2022-08-03T02:03:25.834Z,17.40
2022-08-03T02:06:59.814Z,17.70
2022-08-03T02:09:16.876Z,15.40
2022-08-03T02:12:01.310Z,17.20
2022-08-03T02:14:46.337Z,18.90
2022-08-03T02:17:39.229Z,14.90
2022-08-03T02:20:27.199Z,17.10
2022-08-03T02:23:11.133Z,17.70
2022-08-03T02:26:00.123Z,17.90
2022-08-03T02:28:50.180Z,17.40
2022-08-03T02:31:38.426Z,16.30
2022-08-03T02:34:23.949Z,16.30
2022-08-03T02:37:09.036Z,16.60
2022-08-03T02:39:56.424Z,14.90
2022-08-03T02:42:45.072Z,14.80
2022-08-03T02:45:29.519Z,15.60
2022-08-03T02:48:13.445Z,16.80
2022-08-03T02:51:00.142Z,17.10
2022-08-03T02:53:50.001Z,16.00
2022-08-03T02:56:34.640Z,17.40
2022-08-03T02:59:19.370Z,20.50
2022-08-03T03:02:04.050Z,17.60
2022-08-03T03:05:52.758Z,15.70
2022-08-03T03:07:51.812Z,15.90
2022-08-03T03:10:39.902Z,18.70
2022-08-03T03:13:23.661Z,14.20
2022-08-03T03:16:06.856Z,16.40
2022-08-03T03:18:50.735Z,15.90
2022-08-03T03:21:34.564Z,17.70
2022-08-03T03:24:17.978Z,22.50
2022-08-03T03:27:01.500Z,17.60
2022-08-03T03:29:45.076Z,18.70
2022-08-03T03:32:29.731Z,17.80
2022-08-03T03:35:14.382Z,16.30
2022-08-03T03:37:57.867Z,15.50
2022-08-03T03:40:40.850Z,14.80
2022-08-03T03:43:24.780Z,16.60
2022-08-03T03:46:08.123Z,14.20
2022-08-03T03:48:51.138Z,18.40
2022-08-03T03:51:37.104Z,15.40
2022-08-03T03:54:20.168Z,16.10
2022-08-03T03:57:04.192Z,13.10
2022-08-03T03:59:47.024Z,16.50
2022-08-03T04:02:30.355Z,17.10
2022-08-03T04:05:33.158Z,15.50
2022-08-03T04:08:37.562Z,17.30
2022-08-03T04:11:42.051Z,15.90
2022-08-03T04:14:32.812Z,14.40
2022-08-03T04:20:01.739Z,17.90
2022-08-03T04:22:43.867Z,15.50
2022-08-03T04:25:30.373Z,18.50
2022-08-03T04:28:29.423Z,15.60
2022-08-03T04:31:16.327Z,16.20
2022-08-03T04:34:00.470Z,15.30
2022-08-03T04:36:50.964Z,19.50
2022-08-03T04:39:34.052Z,18.30
2022-08-03T04:42:16.866Z,17.10
2022-08-03T04:45:01.651Z,17.60
2022-08-03T04:47:45.780Z,17.00
2022-08-03T04:50:28.393Z,15.60
2022-08-03T04:53:19.529Z,17.70
2022-08-03T04:56:06.213Z,19.90
2022-08-03T04:58:48.211Z,15.10
2022-08-03T05:01:32.440Z,15.30
2022-08-03T05:04:23.700Z,17.20
2022-08-03T05:07:11.616Z,17.80
2022-08-03T05:09:57.578Z,17.10
2022-08-03T05:15:28.473Z,17.10
2022-08-03T05:18:14.102Z,17.20
2022-08-03T05:20:56.350Z,14.50
2022-08-03T05:23:38.247Z,15.50
2022-08-03T05:26:20.346Z,14.10
2022-08-03T05:29:02.188Z,17.90
2022-08-03T05:31:44.139Z,15.50
2022-08-03T05:34:25.977Z,14.70
2022-08-03T05:37:07.966Z,15.00
2022-08-03T05:39:49.825Z,17.50
2022-08-03T05:42:31.925Z,12.40
2022-08-03T05:45:18.839Z,13.30
2022-08-03T05:48:00.892Z,15.80
2022-08-03T05:50:43.071Z,14.00
2022-08-03T05:53:25.140Z,15.10
2022-08-03T05:56:13.875Z,14.90
2022-08-03T05:58:57.329Z,15.40
2022-08-03T06:01:39.390Z,16.40
2022-08-03T06:04:21.432Z,14.70
2022-08-03T06:07:03.731Z,14.10
2022-08-03T06:10:35.078Z,21.60
2022-08-03T06:12:49.642Z,12.60
2022-08-03T06:15:33.587Z,14.20
2022-08-03T06:18:15.485Z,14.10
2022-08-03T06:20:57.377Z,13.90
2022-08-03T06:23:53.926Z,15.60
2022-08-03T06:26:37.563Z,14.50
2022-08-03T06:29:19.451Z,14.00
2022-08-03T06:32:01.449Z,16.80
2022-08-03T06:34:43.343Z,23.80
2022-08-03T06:37:25.341Z,14.60
2022-08-03T06:40:07.898Z,13.80
2022-08-03T06:42:49.747Z,14.30
2022-08-03T06:45:34.251Z,16.50
2022-08-03T06:48:16.406Z,12.80
2022-08-03T06:50:58.301Z,15.20
2022-08-03T06:53:40.607Z,11.00
2022-08-03T06:56:22.503Z,11.90
2022-08-03T06:59:04.401Z,13.30
2022-08-03T07:01:46.321Z,12.50
2022-08-03T07:04:28.291Z,10.60
2022-08-03T07:07:10.132Z,12.10
2022-08-03T07:09:57.154Z,10.40
2022-08-03T07:12:55.698Z,11.80
2022-08-03T07:15:55.857Z,11.50
2022-08-03T07:18:39.857Z,10.20
2022-08-03T07:21:21.959Z,11.00
2022-08-03T07:24:04.366Z,12.40
2022-08-03T07:26:46.568Z,12.30
2022-08-03T07:29:30.410Z,9.90
2022-08-03T07:32:17.389Z,11.90
2022-08-03T07:35:01.149Z,8.70
2022-08-03T07:37:53.043Z,12.50
2022-08-03T07:40:36.731Z,8.80
2022-08-03T07:43:18.576Z,9.50
2022-08-03T07:46:00.524Z,8.00
2022-08-03T07:48:43.546Z,9.00
2022-08-03T07:51:25.853Z,7.90
2022-08-03T07:54:10.716Z,7.80
2022-08-03T07:56:52.723Z,7.70
2022-08-03T07:59:57.214Z,9.40
2022-08-03T08:02:38.220Z,8.00
2022-08-03T08:05:20.408Z,9.00
2022-08-03T08:08:03.749Z,8.30
2022-08-03T08:10:58.001Z,8.00
2022-08-03T08:13:40.748Z,8.90
2022-08-03T08:16:22.850Z,7.80
2022-08-03T08:19:06.177Z,8.90
2022-08-03T08:21:54.046Z,7.90
2022-08-03T08:24:45.125Z,6.60
2022-08-03T08:27:27.486Z,7.40
2022-08-03T08:30:12.270Z,8.00
2022-08-03T08:32:55.880Z,13.20
2022-08-03T08:35:37.929Z,8.40
2022-08-03T08:38:22.079Z,8.00
2022-08-03T08:41:04.233Z,7.10
2022-08-03T08:43:46.281Z,6.70
2022-08-03T08:46:32.374Z,8.90
2022-08-03T08:49:18.932Z,8.70
2022-08-03T08:52:04.163Z,7.30
2022-08-03T08:55:08.493Z,7.60
2022-08-03T08:57:59.285Z,10.70
2022-08-03T09:00:41.788Z,7.50
2022-08-03T09:03:29.949Z,8.50
2022-08-03T09:06:13.874Z,8.30
2022-08-03T09:08:55.873Z,9.30
2022-08-03T09:11:57.744Z,7.40
2022-08-03T09:14:54.800Z,8.60
2022-08-03T09:17:41.803Z,7.90
2022-08-03T09:20:25.439Z,7.90
2022-08-03T09:23:51.687Z,7.80
2022-08-03T09:26:12.168Z,7.90
2022-08-03T09:29:09.350Z,8.60
2022-08-03T09:32:02.937Z,7.30
2022-08-03T09:34:44.787Z,15.20
2022-08-03T09:38:11.859Z,7.90
2022-08-03T09:40:36.628Z,8.20
2022-08-03T09:43:18.943Z,9.80
2022-08-03T09:46:05.553Z,8.70
2022-08-03T09:48:47.443Z,11.00
2022-08-03T09:51:33.369Z,7.40
2022-08-03T09:54:32.828Z,8.40
2022-08-03T09:57:26.205Z,6.90
2022-08-03T10:00:12.398Z,6.80
2022-08-03T10:03:04.872Z,6.60
2022-08-03T10:05:47.048Z,7.30
2022-08-03T10:08:29.047Z,8.00
2022-08-03T10:11:10.947Z,9.00
2022-08-03T10:13:57.992Z,6.70
2022-08-03T10:16:43.848Z,6.80
2022-08-03T10:19:26.050Z,7.50
2022-08-03T10:22:12.792Z,6.50
2022-08-03T10:25:00.491Z,8.90
2022-08-03T10:27:47.654Z,8.30
2022-08-03T10:30:32.220Z,9.20
2022-08-03T10:33:51.040Z,10.00
2022-08-03T10:36:37.028Z,10.50
2022-08-03T10:39:22.504Z,8.50
2022-08-03T10:42:06.268Z,8.20
2022-08-03T10:45:04.418Z,8.50
2022-08-03T10:47:51.749Z,7.00
2022-08-03T10:50:35.482Z,11.10
2022-08-03T10:53:35.746Z,8.30
2022-08-03T10:56:51.961Z,7.90
2022-08-03T10:59:45.991Z,7.50
2022-08-03T11:03:06.836Z,8.10
2022-08-03T11:05:49.565Z,8.30
2022-08-03T11:08:35.065Z,8.20
2022-08-03T11:11:20.163Z,6.00
2022-08-03T11:14:20.285Z,6.60
2022-08-03T11:17:14.377Z,9.80
2022-08-03T11:19:58.456Z,7.80
2022-08-03T11:22:49.217Z,8.70
2022-08-03T11:26:09.951Z,8.00
2022-08-03T11:28:51.922Z,9.20
2022-08-03T11:31:49.450Z,7.10
2022-08-03T11:34:31.996Z,6.70
2022-08-03T11:37:29.987Z,7.50
2022-08-03T11:40:33.577Z,7.40
2022-08-03T11:43:31.599Z,6.70
2022-08-03T11:46:29.483Z,6.90
2022-08-03T11:49:12.179Z,11.40
2022-08-03T11:51:55.176Z,7.30
2022-08-03T11:54:37.356Z,6.00
2022-08-03T11:59:15.277Z,8.00
2022-08-03T12:00:35.350Z,6.90
2022-08-03T12:03:19.367Z,7.60
2022-08-03T12:06:02.624Z,6.90
2022-08-03T12:08:46.975Z,6.80
2022-08-03T12:11:30.816Z,7.90
2022-08-03T12:14:49.909Z,6.80
2022-08-03T12:17:19.643Z,6.30
2022-08-03T12:20:02.870Z,6.50
2022-08-03T12:22:44.820Z,9.40
2022-08-03T12:25:38.907Z,11.50
2022-08-03T12:28:28.346Z,7.80
2022-08-03T12:31:19.794Z,6.30
2022-08-03T12:34:04.575Z,7.60
2022-08-03T12:36:56.388Z,5.90
2022-08-03T12:39:38.690Z,8.70
2022-08-03T12:42:41.279Z,6.40
2022-08-03T12:45:30.509Z,7.10
2022-08-03T12:48:12.435Z,8.10
2022-08-03T12:51:09.253Z,7.80
2022-08-03T12:53:55.773Z,6.80
2022-08-03T12:57:06.970Z,9.10
2022-08-03T12:59:52.904Z,10.00
2022-08-03T13:02:36.022Z,8.20
2022-08-03T13:05:19.823Z,8.50
2022-08-03T13:08:01.718Z,9.30
2022-08-03T13:10:43.922Z,7.60
2022-08-03T13:13:39.548Z,6.60
2022-08-03T13:16:22.997Z,7.20
2022-08-03T13:19:04.866Z,6.40
2022-08-03T13:22:01.690Z,7.10
2022-08-03T13:24:48.331Z,7.60
2022-08-03T13:28:04.149Z,8.70
2022-08-03T13:30:33.308Z,7.70
2022-08-03T13:33:15.203Z,8.50
2022-08-03T13:35:57.511Z,7.80
2022-08-03T13:38:39.477Z,8.60
2022-08-03T13:41:22.530Z,8.90
2022-08-03T13:44:28.919Z,7.50
2022-08-03T13:47:11.961Z,8.60
2022-08-03T13:50:01.211Z,7.00
2022-08-03T13:52:46.464Z,6.30
2022-08-03T13:55:28.565Z,9.50
2022-08-03T13:58:12.776Z,8.40
2022-08-03T14:00:54.815Z,7.40
2022-08-03T14:03:36.709Z,8.50
2022-08-03T14:06:19.323Z,7.50
2022-08-03T14:09:01.225Z,9.10
2022-08-03T14:12:06.997Z,8.10
2022-08-03T14:14:46.207Z,14.40
2022-08-03T14:17:28.204Z,9.00
2022-08-03T14:20:36.700Z,7.40
2022-08-03T14:23:19.541Z,7.30
2022-08-03T14:26:01.438Z,8.40
2022-08-03T14:28:43.337Z,7.90
2022-08-03T14:32:11.362Z,7.20
2022-08-03T14:34:27.377Z,7.50
2022-08-03T14:37:09.401Z,9.30
2022-08-03T14:40:00.526Z,8.50
2022-08-03T14:42:42.714Z,7.80
2022-08-03T14:45:24.711Z,7.00
2022-08-03T14:50:32.161Z,8.90
2022-08-03T14:51:08.925Z,9.70
2022-08-03T14:53:50.723Z,6.60
2022-08-03T14:56:32.676Z,9.10
2022-08-03T14:59:14.569Z,11.90
2022-08-03T15:02:04.925Z,7.50
2022-08-03T15:04:49.623Z,7.90
2022-08-03T15:07:31.622Z,9.90
2022-08-03T15:10:13.620Z,7.70
2022-08-03T15:12:55.825Z,10.70
2022-08-03T15:15:37.666Z,10.10
2022-08-03T15:18:21.887Z,9.90
2022-08-03T15:21:05.504Z,8.10
2022-08-03T15:23:48.363Z,7.10
2022-08-03T15:26:36.577Z,7.80
2022-08-03T15:30:06.176Z,8.40
2022-08-03T15:32:24.728Z,8.90
2022-08-03T15:35:08.468Z,7.70
2022-08-03T15:37:51.285Z,9.70
2022-08-03T15:40:33.542Z,7.10
2022-08-03T15:43:15.862Z,7.40
2022-08-03T15:46:27.695Z,8.80
2022-08-03T15:49:00.886Z,8.20
2022-08-03T15:51:42.780Z,7.40
2022-08-03T15:54:24.729Z,7.60
2022-08-03T15:57:07.595Z,8.20
2022-08-03T15:59:49.436Z,8.40
2022-08-03T16:02:31.386Z,7.10
2022-08-03T16:05:13.181Z,7.80
2022-08-03T16:08:02.655Z,7.10
2022-08-03T16:10:48.079Z,9.40
2022-08-03T16:14:13.820Z,7.10
2022-08-03T16:16:32.716Z,7.10
2022-08-03T16:19:15.223Z,7.70
2022-08-03T16:21:57.117Z,7.00
2022-08-03T16:24:39.731Z,8.20
2022-08-03T16:27:37.156Z,7.40
2022-08-03T16:30:25.539Z,7.20
2022-08-03T16:33:07.638Z,7.30
2022-08-03T16:35:49.944Z,9.00
2022-08-03T16:38:31.956Z,7.00
2022-08-03T16:41:13.841Z,7.00
2022-08-03T16:43:55.938Z,7.60
2022-08-03T16:46:38.142Z,8.60
2022-08-03T16:49:54.564Z,11.70
2022-08-03T16:52:22.901Z,7.30
2022-08-03T16:55:06.837Z,9.30
2022-08-03T16:57:58.714Z,7.40
2022-08-03T17:00:43.265Z,12.10
2022-08-03T17:03:42.752Z,8.30
2022-08-03T17:06:45.180Z,8.00
2022-08-03T17:09:29.544Z,9.20
2022-08-03T17:12:20.608Z,6.60
2022-08-03T17:15:03.320Z,11.10
2022-08-03T17:18:01.932Z,14.10
2022-08-03T17:20:47.164Z,9.70
2022-08-03T17:23:46.318Z,9.30
2022-08-03T17:26:30.611Z,10.10
2022-08-03T17:29:14.572Z,10.20
2022-08-03T17:31:57.545Z,10.90
2022-08-03T17:34:44.784Z,11.20
2022-08-03T17:37:57.698Z,9.90
2022-08-03T17:40:31.128Z,11.90
2022-08-03T17:44:12.815Z,9.30
2022-08-03T17:46:23.039Z,12.80
2022-08-03T17:49:05.706Z,9.40
2022-08-03T17:52:32.804Z,8.50
2022-08-03T17:55:57.093Z,10.10
2022-08-03T17:58:55.739Z,9.70
2022-08-03T18:02:18.547Z,10.60
2022-08-03T18:08:17.252Z,11.60
2022-08-03T18:11:14.815Z,10.50
2022-08-03T18:14:15.948Z,9.80
2022-08-03T18:17:06.545Z,10.90
2022-08-03T18:20:03.657Z,11.40
2022-08-03T18:22:53.676Z,10.60
2022-08-03T18:25:45.337Z,10.20
2022-08-03T18:28:31.472Z,9.60
2022-08-03T18:32:00.175Z,8.60
2022-08-03T18:34:33.241Z,10.50
2022-08-03T18:37:19.486Z,9.50
2022-08-03T18:40:07.370Z,9.70
2022-08-03T18:42:52.890Z,11.70
2022-08-03T18:45:57.810Z,10.50
2022-08-03T18:48:53.217Z,11.10
2022-08-03T18:51:43.243Z,9.80
2022-08-03T18:54:47.061Z,7.20
2022-08-03T18:57:46.454Z,9.00
2022-08-03T19:00:42.585Z,12.70
2022-08-03T19:03:41.593Z,12.00
2022-08-03T19:06:28.968Z,11.30
2022-08-03T19:09:28.325Z,13.20
2022-08-03T19:12:30.940Z,12.00
2022-08-03T19:15:36.160Z,10.90
2022-08-03T19:18:20.961Z,13.40
2022-08-03T19:21:12.837Z,11.30
2022-08-03T19:24:07.905Z,12.60
2022-08-03T19:26:55.989Z,13.40
2022-08-03T19:29:58.579Z,10.90
2022-08-03T19:32:48.373Z,14.10
2022-08-03T19:35:51.611Z,11.30
2022-08-03T19:38:32.774Z,12.50
2022-08-03T19:41:17.877Z,13.90
2022-08-03T19:44:04.480Z,14.60
2022-08-03T19:46:55.481Z,17.70
2022-08-03T19:52:47.608Z,11.90
2022-08-03T19:55:32.357Z,14.50
2022-08-03T19:58:17.639Z,14.20
2022-08-03T20:01:19.534Z,11.40
2022-08-03T20:04:03.460Z,12.10
2022-08-03T20:06:47.846Z,11.60
2022-08-03T20:09:34.522Z,13.10
2022-08-03T20:12:17.575Z,16.60
2022-08-03T20:15:09.337Z,12.70
2022-08-03T20:17:55.415Z,11.60
2022-08-03T20:20:40.128Z,13.50
2022-08-03T20:23:27.246Z,10.90
2022-08-03T20:26:20.508Z,15.10
2022-08-03T20:29:10.015Z,11.00
2022-08-03T20:31:52.286Z,11.50
2022-08-03T20:34:34.185Z,9.80
2022-08-03T20:37:17.205Z,10.70
2022-08-03T20:40:00.437Z,12.90
2022-08-03T20:42:42.636Z,11.80
2022-08-03T20:45:58.582Z,13.70
2022-08-03T20:48:27.057Z,13.20
2022-08-03T20:51:20.214Z,13.00
2022-08-03T20:54:22.991Z,12.70
2022-08-03T20:57:11.608Z,17.10
2022-08-03T20:59:55.758Z,15.40
2022-08-03T21:02:38.511Z,12.20
2022-08-03T21:05:47.735Z,12.00
2022-08-03T21:08:26.230Z,13.60
2022-08-03T21:11:15.809Z,12.70
2022-08-03T21:12:56.493Z,10.40
2022-08-03T21:13:11.193Z,12.50
2022-08-03T21:14:01.950Z,14.10
2022-08-03T21:16:48.308Z,14.70
2022-08-03T21:19:32.115Z,14.60
2022-08-03T21:22:15.955Z,16.10
2022-08-03T21:25:00.137Z,15.30
2022-08-03T21:27:42.185Z,16.10
2022-08-03T21:30:26.682Z,18.20
2022-08-03T21:33:08.785Z,12.80
2022-08-03T21:35:51.398Z,13.80
2022-08-03T21:38:36.384Z,17.30
2022-08-03T21:41:19.435Z,16.30
2022-08-03T21:44:05.154Z,11.50
2022-08-03T21:46:50.247Z,13.80
2022-08-03T21:50:05.268Z,14.50
2022-08-03T21:52:47.418Z,13.10
2022-08-03T21:55:31.260Z,14.70
2022-08-03T21:58:17.526Z,12.70
2022-08-03T22:00:59.812Z,14.80
2022-08-03T22:03:53.197Z,13.60
2022-08-03T22:06:36.457Z,12.90
2022-08-03T22:09:19.378Z,12.70
2022-08-03T22:12:01.274Z,12.90
2022-08-03T22:14:43.681Z,15.20
2022-08-03T22:17:54.527Z,15.00
2022-08-03T22:20:28.875Z,13.30
2022-08-03T22:23:11.587Z,14.60
2022-08-03T22:25:56.705Z,15.40
2022-08-03T22:28:39.169Z,13.90
2022-08-03T22:31:37.656Z,13.50
2022-08-03T22:34:26.848Z,16.70
2022-08-03T22:37:10.967Z,12.80
2022-08-03T22:39:54.960Z,15.50
2022-08-03T22:42:37.114Z,15.50
2022-08-03T22:46:07.036Z,13.70
2022-08-03T22:48:22.346Z,15.10
2022-08-03T22:51:05.551Z,15.60
2022-08-03T22:53:47.987Z,13.00
2022-08-03T22:56:29.940Z,14.30
2022-08-03T22:59:40.407Z,15.20
2022-08-03T23:02:23.336Z,13.90
2022-08-03T23:05:11.011Z,13.30
2022-08-03T23:08:12.614Z,13.70
2022-08-03T23:11:00.041Z,16.70
2022-08-03T23:13:42.941Z,13.00
2022-08-03T23:16:29.261Z,12.40
2022-08-03T23:19:17.365Z,14.80
2022-08-03T23:22:08.151Z,16.60
2022-08-03T23:25:11.525Z,14.00
2022-08-03T23:28:05.215Z,13.50
2022-08-03T23:30:51.491Z,15.90
2022-08-03T23:33:34.394Z,15.50
2022-08-03T23:36:31.198Z,13.60
2022-08-03T23:39:16.781Z,15.00
2022-08-03T23:42:00.051Z,15.20
2022-08-03T23:44:44.710Z,15.00
2022-08-03T23:47:46.323Z,16.00
2022-08-03T23:50:40.655Z,11.70
2022-08-03T23:53:31.976Z,14.80
2022-08-03T23:56:48.889Z,13.10
2022-08-03T23:59:51.881Z,13.30
